Time;durP1;ratioP1;P1;durP2;ratioP2;P2;SDS_P1;SDS_P2;PMS_P1;PMS_P2;Temp;Humidity;BMP_temperature;BMP_pressure;BME280_temperature;BME280_humidity;BME280_pressure;Samples;Min_cycle;Max_cycle;Signal;HPM_P1;HPM_P2
2022/09/12 00:01:56;;;;;;;1.63;0.60;;;14.50;73.60;;;;;;5112507;28;20371;-78
2022/09/12 00:04:23;;;;;;;1.93;0.70;;;14.60;73.80;;;;;;5112445;28;20933;-81
2022/09/12 00:06:50;;;;;;;2.13;0.60;;;14.50;73.60;;;;;;5112323;28;20450;-75
2022/09/12 00:09:17;;;;;;;3.50;0.88;;;14.70;73.60;;;;;;5112672;28;20382;-77
2022/09/12 00:11:46;;;;;;;1.25;0.55;;;14.90;75.50;;;;;;5112514;28;20449;-78
2022/09/12 00:14:16;;;;;;;2.92;0.60;;;14.90;72.40;;;;;;5112608;28;20869;-80
2022/09/12 00:16:43;;;;;;;3.05;0.63;;;14.90;72.80;;;;;;5116312;28;20808;-77
2022/09/12 00:19:11;;;;;;;1.97;0.70;;;15.00;72.30;;;;;;5099255;28;20458;-77
2022/09/12 00:21:40;;;;;;;1.38;0.55;;;14.90;71.10;;;;;;5116275;28;20417;-77
2022/09/12 00:24:08;;;;;;;1.10;0.50;;;14.90;71.70;;;;;;5116649;28;20454;-78
2022/09/12 00:26:35;;;;;;;1.83;0.60;;;15.00;71.30;;;;;;5115940;28;20381;-80
2022/09/12 00:29:03;;;;;;;1.42;0.50;;;15.10;71.40;;;;;;5116141;28;20371;-80
2022/09/12 00:31:30;;;;;;;1.73;0.50;;;15.30;69.60;;;;;;5116885;28;20859;-80
2022/09/12 00:34:02;;;;;;;2.33;0.70;;;15.40;70.40;;;;;;5118049;28;20897;-79
2022/09/12 00:36:29;;;;;;;0.73;0.50;;;15.50;69.80;;;;;;5120338;28;20398;-77
2022/09/12 00:38:57;;;;;;;1.20;0.50;;;15.50;70.40;;;;;;5122068;28;20370;-79
2022/09/12 00:41:29;;;;;;;2.30;0.52;;;15.50;67.80;;;;;;5119697;28;20458;-76
2022/09/12 00:44:23;;;;;;;1.67;0.60;;;15.60;70.00;;;;;;5099509;28;20367;-79
2022/09/12 00:47:18;;;;;;;2.58;0.80;;;15.80;69.00;;;;;;5034444;28;20465;-78
2022/09/12 00:50:04;;;;;;;1.80;0.50;;;16.00;69.10;;;;;;5028730;28;20460;-78
2022/09/12 00:52:48;;;;;;;0.70;0.50;;;16.10;66.70;;;;;;5033404;28;20480;-78
2022/09/12 00:55:18;;;;;;;1.23;0.57;;;16.10;66.30;;;;;;5033675;28;20423;-80
2022/09/12 00:58:15;;;;;;;1.25;0.65;;;16.20;67.00;;;;;;5033122;28;20794;-80
2022/09/12 01:00:43;;;;;;;1.67;0.68;;;16.30;68.40;;;;;;5031922;28;20401;-79
2022/09/12 01:03:13;;;;;;;1.17;0.50;;;16.20;65.50;;;;;;5032997;28;20385;-78
2022/09/12 01:05:57;;;;;;;1.50;0.60;;;16.20;65.60;;;;;;5033291;28;20440;-77
2022/09/12 01:08:27;;;;;;;1.33;0.52;;;16.20;65.10;;;;;;5032724;28;20400;-81
2022/09/12 01:10:56;;;;;;;1.38;0.43;;;16.40;66.30;;;;;;5033194;28;20941;-82
2022/09/12 01:13:23;;;;;;;1.13;0.50;;;16.60;63.10;;;;;;5032534;28;20468;-78
2022/09/12 01:15:51;;;;;;;1.48;0.50;;;16.60;62.30;;;;;;5033297;28;20428;-80
2022/09/12 01:18:30;;;;;;;1.48;0.50;;;16.80;62.70;;;;;;5016458;28;20365;-77
2022/09/12 01:21:24;;;;;;;1.02;0.57;;;16.90;59.90;;;;;;5033018;28;20389;-81
2022/09/12 01:24:45;;;;;;;0.60;0.40;;;17.00;61.50;;;;;;5076040;28;20375;-77
2022/09/12 01:27:30;;;;;;;1.83;0.60;;;17.40;60.70;;;;;;5031569;28;20420;-79
2022/09/12 01:30:35;;;;;;;1.00;0.40;;;18.10;59.40;;;;;;5033304;28;20377;-79
2022/09/12 01:33:30;;;;;;;1.20;0.40;;;18.50;59.30;;;;;;5012535;28;20414;-79
2022/09/12 01:36:14;;;;;;;1.73;0.50;;;18.90;57.00;;;;;;5013152;28;20436;-79
2022/09/12 01:38:59;;;;;;;2.60;0.47;;;19.00;57.20;;;;;;5012692;28;20483;-79
2022/09/12 01:41:44;;;;;;;1.92;0.47;;;19.40;54.80;;;;;;5012500;28;20376;-79
2022/09/12 01:44:46;;;;;;;1.20;0.60;;;20.00;55.90;;;;;;5012533;28;20742;-82
2022/09/12 01:47:36;;;;;;;1.60;0.50;;;20.50;54.10;;;;;;4953786;29;20389;-80
2022/09/12 01:50:09;;;;;;;1.00;0.50;;;20.30;51.80;;;;;;4953777;29;20411;-81
2022/09/12 01:53:25;;;;;;;1.45;0.50;;;20.00;53.30;;;;;;4954020;29;20505;-81
2022/09/12 01:56:01;;;;;;;1.08;0.45;;;20.80;51.40;;;;;;4934219;29;20985;-78
2022/09/12 01:58:43;;;;;;;0.85;0.50;;;21.00;51.30;;;;;;4934992;29;20458;-79
2022/09/12 02:01:17;;;;;;;1.20;0.50;;;21.00;51.80;;;;;;4934503;29;20398;-81
2022/09/12 02:04:02;;;;;;;1.02;0.40;;;21.70;50.90;;;;;;4934569;29;20735;-79
2022/09/12 02:06:46;;;;;;;1.02;0.52;;;22.10;50.40;;;;;;4934331;29;20392;-79
2022/09/12 02:09:47;;;;;;;1.52;0.50;;;22.50;50.00;;;;;;4950035;28;20425;-80
2022/09/12 02:12:19;;;;;;;0.93;0.40;;;22.80;48.60;;;;;;4971413;28;20370;-79
2022/09/12 02:14:53;;;;;;;2.10;0.60;;;22.20;47.90;;;;;;4973136;28;20415;-81
2022/09/12 02:17:25;;;;;;;0.65;0.50;;;21.80;49.50;;;;;;4972555;28;20747;-79
2022/09/12 02:20:27;;;;;;;0.80;0.40;;;21.70;49.90;;;;;;4972837;28;20382;-80
2022/09/12 02:22:56;;;;;;;1.05;0.50;;;22.10;49.00;;;;;;4983489;28;20477;-79
2022/09/12 02:25:25;;;;;;;0.68;0.38;;;21.90;49.40;;;;;;5071382;28;20385;-79
2022/09/12 02:28:04;;;;;;;0.82;0.40;;;22.20;48.80;;;;;;5071075;28;20389;-82
2022/09/12 02:30:53;;;;;;;0.60;0.50;;;22.70;46.60;;;;;;5071146;28;20501;-81
2022/09/12 02:33:25;;;;;;;0.55;0.50;;;23.00;47.40;;;;;;5113581;28;20710;-79
2022/09/12 02:36:06;;;;;;;1.17;0.55;;;22.70;47.80;;;;;;5095381;28;20447;-81
2022/09/12 02:38:44;;;;;;;2.08;0.40;;;22.70;46.70;;;;;;5112639;28;20372;-80
2022/09/12 02:41:14;;;;;;;4.68;0.68;;;22.60;46.60;;;;;;5113470;28;20435;-81
2022/09/12 02:43:42;;;;;;;1.30;0.50;;;23.00;48.10;;;;;;5113593;28;20367;-82
2022/09/12 02:46:18;;;;;;;0.63;0.40;;;23.30;46.60;;;;;;5113736;28;20398;-79
2022/09/12 02:48:45;;;;;;;1.48;0.60;;;23.70;46.00;;;;;;5113199;28;20375;-83
2022/09/12 02:51:13;;;;;;;0.80;0.50;;;23.50;46.00;;;;;;5113443;28;20378;-79
2022/09/12 02:53:41;;;;;;;0.70;0.40;;;23.50;46.80;;;;;;5095173;28;20390;-81
2022/09/12 02:56:12;;;;;;;3.88;0.70;;;24.00;45.80;;;;;;5114027;28;20406;-79
2022/09/12 02:58:39;;;;;;;1.00;0.40;;;24.40;44.10;;;;;;5113855;28;20436;-81
2022/09/12 03:01:29;;;;;;;0.65;0.40;;;24.00;45.10;;;;;;5113859;28;20492;-80
2022/09/12 03:03:56;;;;;;;2.20;0.60;;;23.40;47.20;;;;;;5095011;28;20471;-82
2022/09/12 03:06:33;;;;;;;1.20;0.50;;;23.60;46.10;;;;;;5113780;28;20390;-80
2022/09/12 03:09:06;;;;;;;5.68;0.70;;;24.30;44.60;;;;;;5113634;28;20390;-82
2022/09/12 03:11:45;;;;;;;7.60;1.00;;;25.00;44.40;;;;;;5115226;28;20438;-82
2022/09/12 03:14:39;;;;;;;7.57;1.05;;;25.00;43.20;;;;;;5117706;28;20369;-79
2022/09/12 03:17:37;;;;;;;6.18;0.90;;;24.70;43.80;;;;;;5117634;28;20395;-83
2022/09/12 03:20:40;;;;;;;2.60;0.60;;;25.00;43.00;;;;;;5117281;28;20363;-81
2022/09/12 03:23:52;;;;;;;2.05;0.45;;;24.70;43.80;;;;;;5127311;28;20365;-79
2022/09/12 03:26:45;;;;;;;4.13;0.80;;;24.40;44.00;;;;;;5050717;28;20912;-79
2022/09/12 03:29:14;;;;;;;5.47;0.83;;;25.00;43.80;;;;;;5050155;28;20423;-79
2022/09/12 03:31:52;;;;;;;3.30;0.55;;;25.70;43.90;;;;;;5050720;28;20377;-80
2022/09/12 03:34:21;;;;;;;1.48;0.70;;;25.30;43.70;;;;;;5052181;28;20390;-81
2022/09/12 03:36:49;;;;;;;2.42;0.60;;;25.60;42.20;;;;;;5038229;28;20404;-80
2022/09/12 03:39:17;;;;;;;1.02;0.50;;;26.30;41.80;;;;;;5032123;28;20388;-81
2022/09/12 03:41:44;;;;;;;5.68;0.55;;;26.30;41.20;;;;;;5033341;28;20390;-80
2022/09/12 03:44:11;;;;;;;1.35;0.40;;;26.20;41.40;;;;;;5034517;28;20373;-82
2022/09/12 03:46:38;;;;;;;1.75;0.50;;;25.80;41.90;;;;;;5035798;28;20449;-82
2022/09/12 03:49:05;;;;;;;0.80;0.50;;;25.70;41.70;;;;;;5035335;28;20377;-80
2022/09/12 03:51:32;;;;;;;2.35;1.05;;;25.30;43.10;;;;;;5036474;28;20446;-79
2022/09/12 03:54:00;;;;;;;5.88;0.80;;;24.60;43.60;;;;;;5036616;28;20827;-82
2022/09/12 03:56:27;;;;;;;2.63;0.68;;;25.10;43.70;;;;;;5036340;28;20398;-80
2022/09/12 03:58:54;;;;;;;1.15;0.38;;;25.30;42.90;;;;;;5035556;28;20385;-80
2022/09/12 04:01:21;;;;;;;2.25;0.52;;;25.40;42.10;;;;;;5040627;28;20463;-81
2022/09/12 04:03:51;;;;;;;0.68;0.47;;;25.10;41.80;;;;;;5117049;28;20371;-82
2022/09/12 04:06:21;;;;;;;2.57;0.60;;;24.90;42.40;;;;;;5117538;28;20377;-83
2022/09/12 04:08:53;;;;;;;14.45;1.40;;;25.60;42.40;;;;;;5116647;28;20978;-83
2022/09/12 04:11:22;;;;;;;5.28;0.60;;;25.60;42.60;;;;;;5117062;28;20877;-82
2022/09/12 04:13:49;;;;;;;3.90;0.63;;;26.40;42.00;;;;;;5116488;28;20888;-83
2022/09/12 04:16:17;;;;;;;0.65;0.50;;;26.80;41.30;;;;;;5116653;28;20401;-81
2022/09/12 04:18:45;;;;;;;3.83;0.80;;;26.90;40.30;;;;;;5098835;28;20699;-83
2022/09/12 04:21:18;;;;;;;1.33;0.40;;;26.90;40.80;;;;;;5116647;28;20424;-80
2022/09/12 04:23:45;;;;;;;1.70;0.60;;;26.60;40.60;;;;;;5116546;28;20363;-81
2022/09/12 04:26:13;;;;;;;9.13;1.00;;;26.10;42.50;;;;;;5116378;28;20465;-78
2022/09/12 04:28:41;;;;;;;1.77;0.57;;;26.30;42.10;;;;;;5116371;28;20367;-81
2022/09/12 04:31:19;;;;;;;2.40;0.50;;;26.30;40.90;;;;;;5116301;28;20423;-79
2022/09/12 04:33:46;;;;;;;0.77;0.45;;;26.50;41.70;;;;;;5121286;28;20355;-80
2022/09/12 04:36:16;;;;;;;6.47;1.00;;;27.30;40.70;;;;;;5102637;28;20454;-83
2022/09/12 04:38:45;;;;;;;3.03;0.50;;;27.10;40.60;;;;;;5116452;28;20768;-82
2022/09/12 04:41:25;;;;;;;0.82;0.40;;;26.00;41.10;;;;;;5116729;28;20375;-82
2022/09/12 04:43:54;;;;;;;1.20;0.52;;;25.00;42.50;;;;;;5116105;28;20364;-81
2022/09/12 04:46:21;;;;;;;2.28;0.50;;;23.50;43.70;;;;;;5116112;28;20738;-80
2022/09/12 04:48:49;;;;;;;2.45;0.60;;;22.60;45.40;;;;;;5115966;28;20366;-80
2022/09/12 04:51:27;;;;;;;4.82;0.63;;;23.40;45.50;;;;;;5115915;28;20383;-81
2022/09/12 04:53:57;;;;;;;5.75;0.80;;;24.70;44.70;;;;;;5116103;28;20363;-82
2022/09/12 04:56:25;;;;;;;10.95;1.48;;;25.70;42.90;;;;;;5115741;28;20486;-82
2022/09/12 04:58:52;;;;;;;1.80;0.50;;;26.10;41.30;;;;;;5115904;28;20445;-80
2022/09/12 05:01:22;;;;;;;0.63;0.50;;;24.80;42.00;;;;;;5115154;28;20382;-82
2022/09/12 05:03:50;;;;;;;3.83;0.67;;;23.20;44.20;;;;;;5115380;28;20366;-81
2022/09/12 05:06:21;;;;;;;8.73;1.13;;;21.90;46.10;;;;;;5115641;28;20371;-82
2022/09/12 05:08:48;;;;;;;14.50;1.38;;;21.20;48.20;;;;;;5115740;28;20371;-82
2022/09/12 05:11:26;;;;;;;4.90;0.60;;;21.30;48.60;;;;;;5115526;28;20929;-82
2022/09/12 05:13:54;;;;;;;7.38;1.13;;;22.50;48.00;;;;;;5052991;28;20382;-86
2022/09/12 05:16:22;;;;;;;8.47;1.00;;;23.50;46.20;;;;;;5053465;28;20425;-83
2022/09/12 05:18:49;;;;;;;7.15;1.10;;;24.10;44.30;;;;;;5052692;28;20682;-82
2022/09/12 05:21:19;;;;;;;2.58;0.50;;;24.30;44.10;;;;;;5052542;28;20387;-81
2022/09/12 05:23:50;;;;;;;2.50;0.75;;;23.20;45.00;;;;;;5052943;28;20419;-81
2022/09/12 05:26:19;;;;;;;1.92;0.55;;;23.30;46.30;;;;;;5053294;28;20376;-81
2022/09/12 05:28:47;;;;;;;1.50;0.50;;;23.60;45.50;;;;;;5052698;28;20411;-81
2022/09/12 05:31:25;;;;;;;2.83;0.50;;;24.10;45.50;;;;;;5052301;28;20673;-82
2022/09/12 05:33:54;;;;;;;3.07;0.83;;;23.80;44.70;;;;;;5053262;28;20756;-81
2022/09/12 05:36:30;;;;;;;7.07;1.00;;;23.00;46.00;;;;;;5052319;28;20407;-83
2022/09/12 05:38:59;;;;;;;4.38;0.65;;;22.70;46.30;;;;;;5052347;28;20471;-81
2022/09/12 05:41:32;;;;;;;1.63;0.45;;;22.40;46.40;;;;;;5052306;28;20395;-80
2022/09/12 05:44:05;;;;;;;1.23;0.65;;;21.70;47.30;;;;;;5052086;28;20380;-84
2022/09/12 05:46:38;;;;;;;2.17;0.60;;;21.30;47.70;;;;;;5052662;28;20387;-80
2022/09/12 05:49:07;;;;;;;3.65;0.75;;;21.00;48.10;;;;;;5052371;28;20372;-83
2022/09/12 05:51:37;;;;;;;2.63;0.75;;;20.70;48.30;;;;;;5080492;28;20697;-81
2022/09/12 05:54:06;;;;;;;2.15;0.90;;;20.30;49.00;;;;;;5114445;28;20454;-80
2022/09/12 05:56:39;;;;;;;5.13;0.90;;;20.00;49.90;;;;;;5096127;28;20399;-82
2022/09/12 05:59:15;;;;;;;4.68;0.80;;;19.90;50.50;;;;;;5114349;28;20387;-79
2022/09/12 06:01:43;;;;;;;3.93;0.90;;;19.60;50.20;;;;;;5115767;28;20367;-90
2022/09/12 06:04:11;;;;;;;8.65;1.13;;;19.70;50.70;;;;;;5115510;28;20770;-85
2022/09/12 06:06:45;;;;;;;9.30;1.20;;;19.60;50.60;;;;;;5114120;28;20375;-78
2022/09/12 06:09:14;;;;;;;14.05;1.52;;;19.70;51.00;;;;;;5113864;28;20502;-79
2022/09/12 06:11:42;;;;;;;14.13;1.40;;;19.60;51.00;;;;;;5113907;28;20363;-78
2022/09/12 06:14:12;;;;;;;8.90;1.20;;;19.50;51.30;;;;;;5113736;28;20398;-80
2022/09/12 06:16:39;;;;;;;8.13;1.40;;;19.30;51.60;;;;;;5113775;28;20395;-81
2022/09/12 06:19:11;;;;;;;8.77;1.30;;;19.20;52.50;;;;;;5114036;28;20371;-84
2022/09/12 06:21:43;;;;;;;14.52;1.60;;;19.10;51.90;;;;;;5113079;28;20401;-87
2022/09/12 06:24:10;;;;;;;11.93;1.30;;;19.20;52.20;;;;;;5113718;28;20462;-81
2022/09/12 06:26:38;;;;;;;5.78;0.98;;;19.10;51.60;;;;;;5113849;28;20367;-81
2022/09/12 06:29:05;;;;;;;8.20;1.15;;;19.10;51.70;;;;;;5114414;28;20371;-78
2022/09/12 06:31:35;;;;;;;6.45;1.42;;;19.10;52.40;;;;;;5113560;28;20371;-88
2022/09/12 06:34:08;;;;;;;9.23;1.27;;;19.10;52.50;;;;;;5113506;28;20412;-80
2022/09/12 06:36:39;;;;;;;10.00;1.35;;;19.00;52.00;;;;;;5113440;28;20754;-77
2022/09/12 06:39:12;;;;;;;11.47;1.43;;;18.90;52.00;;;;;;5113489;28;20362;-82
2022/09/12 06:41:39;;;;;;;5.85;1.33;;;18.70;52.20;;;;;;5113549;28;20363;-84
2022/09/12 06:44:06;;;;;;;7.63;1.63;;;18.70;52.50;;;;;;5113882;28;20378;-80
2022/09/12 06:46:34;;;;;;;5.10;1.10;;;18.60;52.90;;;;;;5097700;28;20398;-85
2022/09/12 06:49:02;;;;;;;9.88;1.60;;;18.60;52.20;;;;;;5117399;28;20371;-82
2022/09/12 06:51:29;;;;;;;24.67;2.65;;;18.50;52.70;;;;;;5118540;28;20362;-86
2022/09/12 06:53:57;;;;;;;16.63;1.98;;;18.40;52.90;;;;;;5117357;28;20394;-80
2022/09/12 06:56:26;;;;;;;41.57;5.00;;;18.30;52.80;;;;;;5115320;28;20395;-87
2022/09/12 06:58:56;;;;;;;52.83;7.43;;;18.30;53.40;;;;;;5097528;28;20449;-88
2022/09/12 07:01:25;;;;;;;30.33;3.95;;;18.20;53.80;;;;;;5114754;28;20462;-88
2022/09/12 07:03:58;;;;;;;19.15;2.30;;;18.10;54.00;;;;;;5114631;28;20452;-80
2022/09/12 07:06:34;;;;;;;8.55;1.20;;;18.10;54.30;;;;;;5113628;28;20362;-77
2022/09/12 07:09:04;;;;;;;15.60;1.55;;;18.00;54.50;;;;;;5113517;28;20961;-78
2022/09/12 07:11:36;;;;;;;15.02;2.03;;;17.90;54.30;;;;;;5113027;28;20383;-83
2022/09/12 07:14:06;;;;;;;23.30;2.20;;;18.20;54.20;;;;;;5113643;28;20431;-79
2022/09/12 07:16:35;;;;;;;17.65;2.22;;;18.20;53.70;;;;;;5112902;28;20973;-81
2022/09/12 07:19:04;;;;;;;18.98;1.90;;;18.30;53.40;;;;;;5112747;28;20363;-77
2022/09/12 07:21:32;;;;;;;11.68;1.63;;;18.10;53.70;;;;;;5112938;28;20383;-77
2022/09/12 07:23:59;;;;;;;7.53;1.52;;;18.10;54.70;;;;;;5113348;28;20370;-79
2022/09/12 07:26:28;;;;;;;14.82;2.45;;;18.00;55.00;;;;;;5112308;28;20379;-77
2022/09/12 07:28:57;;;;;;;22.47;3.00;;;18.00;54.40;;;;;;5113094;28;20397;-75
2022/09/12 07:31:27;;;;;;;25.27;2.50;;;17.90;54.60;;;;;;5112798;28;20397;-85
2022/09/12 07:33:54;;;;;;;18.10;2.38;;;17.70;54.90;;;;;;5113006;28;20719;-85
2022/09/12 07:36:24;;;;;;;22.92;2.42;;;17.50;55.50;;;;;;5112955;28;20405;-80
2022/09/12 07:38:55;;;;;;;22.15;2.45;;;17.30;55.80;;;;;;5112615;28;20427;-78
2022/09/12 07:41:25;;;;;;;26.50;2.58;;;17.20;56.30;;;;;;5112566;28;20374;-78
2022/09/12 07:43:57;;;;;;;22.20;2.13;;;17.10;56.90;;;;;;5113258;28;20366;-79
2022/09/12 07:46:26;;;;;;;13.38;1.70;;;17.00;56.90;;;;;;5113212;28;20378;-78
2022/09/12 07:48:55;;;;;;;8.83;1.40;;;16.90;57.20;;;;;;5112677;28;20389;-84
2022/09/12 07:51:25;;;;;;;15.38;2.40;;;16.80;57.00;;;;;;5114535;28;20370;-82
2022/09/12 07:53:53;;;;;;;22.35;2.45;;;16.60;59.00;;;;;;5113682;28;20374;-81
2022/09/12 07:56:20;;;;;;;15.38;2.33;;;16.50;58.60;;;;;;5114124;28;20447;-81
2022/09/12 07:58:47;;;;;;;17.05;2.22;;;16.40;58.50;;;;;;5114391;28;20428;-78
2022/09/12 08:01:22;;;;;;;21.98;4.65;;;16.30;58.80;;;;;;5112540;28;20458;-79
2022/09/12 08:03:52;;;;;;;27.95;3.92;;;16.20;59.30;;;;;;5112420;28;20396;-88
2022/09/12 08:06:24;;;;;;;24.27;7.30;;;16.10;59.40;;;;;;5112745;28;20396;-85
2022/09/12 08:08:56;;;;;;;17.02;3.30;;;16.00;60.00;;;;;;5112732;28;20448;-89
2022/09/12 08:11:26;;;;;;;12.23;3.40;;;15.90;59.80;;;;;;5113144;28;20359;-88
2022/09/12 08:13:55;;;;;;;23.80;2.80;;;15.80;59.70;;;;;;5115139;28;20858;-78
2022/09/12 08:16:29;;;;;;;10.13;3.70;;;15.80;60.00;;;;;;5123239;28;20402;-84
2022/09/12 08:18:56;;;;;;;10.52;3.10;;;15.80;60.30;;;;;;5116594;28;20374;-91
2022/09/12 08:21:26;;;;;;;4.70;2.00;;;15.80;60.30;;;;;;5113511;28;20858;-81
2022/09/12 08:23:59;;;;;;;7.22;2.00;;;15.90;60.50;;;;;;5113253;28;20375;-88
2022/09/12 08:26:27;;;;;;;7.35;2.00;;;15.80;60.30;;;;;;5098818;28;20382;-88
2022/09/12 08:28:55;;;;;;;5.13;1.90;;;15.70;60.30;;;;;;5112637;28;20379;-81
2022/09/12 08:31:24;;;;;;;5.10;1.60;;;15.70;60.70;;;;;;5112534;28;20370;-81
2022/09/12 08:33:54;;;;;;;4.07;1.30;;;15.60;61.20;;;;;;5113195;28;20370;-85
2022/09/12 08:36:24;;;;;;;3.55;1.50;;;15.60;61.40;;;;;;5113518;28;20394;-86
2022/09/12 08:38:57;;;;;;;1.92;1.10;;;15.40;61.50;;;;;;5111008;28;20459;-80
2022/09/12 08:41:43;;;;;;;4.03;1.00;;;15.40;61.50;;;;;;5116486;28;20359;-80
2022/09/12 08:44:29;;;;;;;4.45;1.60;;;15.40;61.80;;;;;;5115609;28;20394;-81
2022/09/12 08:47:14;;;;;;;2.97;0.90;;;15.30;62.10;;;;;;5116822;28;20382;-79
2022/09/12 08:50:01;;;;;;;2.80;1.00;;;15.20;62.90;;;;;;5116624;28;20829;-78
2022/09/12 08:52:46;;;;;;;1.85;0.88;;;15.10;63.40;;;;;;5115870;28;20487;-77
2022/09/12 08:55:36;;;;;;;2.70;1.10;;;15.00;63.10;;;;;;5097182;28;20427;-77
2022/09/12 08:58:17;;;;;;;2.97;1.13;;;14.90;63.50;;;;;;5116370;28;20370;-78
2022/09/12 09:01:14;;;;;;;3.58;1.00;;;14.80;63.90;;;;;;5115601;28;20471;-78
2022/09/12 09:03:56;;;;;;;3.50;1.00;;;14.70;65.00;;;;;;5115641;28;20371;-77
2022/09/12 09:06:26;;;;;;;2.17;0.90;;;14.50;65.30;;;;;;5115485;28;20446;-79
2022/09/12 09:08:58;;;;;;;2.45;1.00;;;14.30;66.20;;;;;;5116251;28;20440;-79
2022/09/12 09:12:00;;;;;;;2.97;0.90;;;14.20;66.80;;;;;;5115433;28;20374;-79
2022/09/12 09:15:00;;;;;;;6.45;1.60;;;14.10;67.40;;;;;;5115301;28;20363;-78
2022/09/12 09:17:37;;;;;;;6.97;1.40;;;14.00;67.80;;;;;;5115446;28;20406;-79
2022/09/12 09:20:32;;;;;;;3.05;1.35;;;13.90;68.10;;;;;;5115157;28;20930;-80
2022/09/12 09:23:14;;;;;;;5.57;1.42;;;13.80;68.70;;;;;;5115863;28;20367;-79
2022/09/12 09:25:53;;;;;;;7.80;1.38;;;13.90;69.70;;;;;;5115000;28;20363;-79
2022/09/12 09:28:30;;;;;;;11.25;2.20;;;13.60;70.70;;;;;;5118827;28;20386;-79
2022/09/12 09:30:58;;;;;;;15.40;2.90;;;13.50;71.00;;;;;;5100987;28;20371;-78
2022/09/12 09:33:32;;;;;;;8.82;2.33;;;13.50;71.10;;;;;;5117015;28;20432;-76
2022/09/12 09:36:21;;;;;;;8.88;2.42;;;13.50;72.00;;;;;;5117983;28;20394;-77
2022/09/12 09:39:05;;;;;;;8.20;2.97;;;13.40;73.40;;;;;;5118946;28;20363;-78
2022/09/12 09:41:58;;;;;;;12.93;5.55;;;13.30;74.10;;;;;;5119508;28;20374;-77
2022/09/12 09:44:29;;;;;;;13.90;6.00;;;13.20;75.70;;;;;;5036556;28;20370;-77
2022/09/12 09:47:00;;;;;;;10.02;2.40;;;13.20;76.40;;;;;;5036430;28;20388;-78
2022/09/12 09:49:31;;;;;;;9.35;2.15;;;13.20;75.90;;;;;;5021791;28;20365;-77
2022/09/12 09:52:02;;;;;;;7.63;1.80;;;13.20;75.50;;;;;;5042816;28;20382;-79
2022/09/12 09:54:36;;;;;;;6.13;1.30;;;13.30;75.60;;;;;;5038351;28;20830;-80
2022/09/12 09:57:04;;;;;;;2.28;1.10;;;13.40;75.10;;;;;;5037542;28;20416;-79
2022/09/12 09:59:33;;;;;;;2.80;1.17;;;13.40;74.50;;;;;;5038121;28;20377;-77
2022/09/12 10:02:27;;;;;;;4.80;1.02;;;13.30;74.90;;;;;;5035334;28;20734;-78
2022/09/12 10:04:56;;;;;;;2.30;1.17;;;13.40;75.10;;;;;;5036306;28;20373;-78
2022/09/12 10:07:26;;;;;;;4.13;1.23;;;13.40;75.40;;;;;;5036071;28;20373;-78
2022/09/12 10:10:18;;;;;;;3.05;1.15;;;13.40;75.60;;;;;;5036001;28;20488;-79
2022/09/12 10:12:45;;;;;;;3.05;1.00;;;13.40;76.00;;;;;;5035019;28;20453;-78
2022/09/12 10:15:21;;;;;;;3.97;1.42;;;13.40;76.00;;;;;;5034893;28;20597;-78
2022/09/12 10:17:50;;;;;;;4.33;1.70;;;13.20;77.10;;;;;;5034839;28;20467;-77
2022/09/12 10:20:43;;;;;;;3.95;1.60;;;13.10;78.40;;;;;;5036461;28;20385;-79
2022/09/12 10:23:20;;;;;;;3.23;1.20;;;13.00;80.10;;;;;;5117277;28;20393;-78
2022/09/12 10:25:59;;;;;;;3.28;1.00;;;12.80;81.80;;;;;;5099855;28;20418;-78
2022/09/12 10:28:40;;;;;;;2.55;1.00;;;12.80;82.40;;;;;;5117510;28;20885;-77
2022/09/12 10:31:09;;;;;;;4.15;1.10;;;12.70;83.00;;;;;;5116780;28;20370;-78
2022/09/12 10:33:52;;;;;;;6.30;1.80;;;12.80;83.40;;;;;;5097871;28;20423;-77
2022/09/12 10:36:22;;;;;;;5.15;1.50;;;12.90;83.70;;;;;;5115199;28;20398;-77
2022/09/12 10:38:54;;;;;;;5.68;1.50;;;12.90;83.70;;;;;;5116603;28;20375;-75
2022/09/12 10:41:22;;;;;;;5.75;2.10;;;13.00;84.20;;;;;;5098996;28;20862;-77
2022/09/12 10:43:50;;;;;;;6.38;2.10;;;12.90;84.10;;;;;;5116882;28;20369;-77
2022/09/12 10:46:27;;;;;;;5.63;2.10;;;12.80;84.80;;;;;;5117036;28;20371;-77
2022/09/12 10:49:23;;;;;;;6.47;1.80;;;12.80;85.90;;;;;;5116770;28;20363;-76
2022/09/12 10:51:53;;;;;;;5.13;1.23;;;12.70;86.60;;;;;;5035567;28;20857;-77
2022/09/12 10:54:24;;;;;;;2.80;1.10;;;12.60;87.50;;;;;;5035650;28;20378;-75
2022/09/12 10:57:06;;;;;;;3.22;0.80;;;12.50;88.70;;;;;;5036771;28;20417;-80
2022/09/12 10:59:51;;;;;;;2.95;0.80;;;12.50;89.00;;;;;;5036535;28;20896;-76
2022/09/12 11:02:29;;;;;;;3.55;0.90;;;12.50;89.30;;;;;;5043187;28;20385;-77
2022/09/12 11:05:11;;;;;;;1.92;0.95;;;12.50;89.70;;;;;;5043080;28;20378;-78
2022/09/12 11:07:41;;;;;;;4.38;2.20;;;12.40;90.40;;;;;;5051361;28;20372;-81
2022/09/12 11:10:29;;;;;;;4.53;1.83;;;12.20;90.80;;;;;;5052289;28;20439;-83
2022/09/12 11:13:45;;;;;;;4.00;1.63;;;12.10;91.90;;;;;;5053491;28;20411;-77
2022/09/12 11:16:38;;;;;;;5.00;1.70;;;12.00;93.00;;;;;;5053034;28;20404;-76
2022/09/12 11:19:30;;;;;;;3.30;1.27;;;11.90;93.40;;;;;;5051863;28;20362;-81
2022/09/12 11:22:26;;;;;;;4.70;1.50;;;11.90;94.00;;;;;;5015618;28;20823;-85
2022/09/12 11:25:11;;;;;;;2.80;1.42;;;11.80;94.40;;;;;;5012172;28;20398;-80
2022/09/12 11:27:56;;;;;;;5.05;1.30;;;11.80;95.10;;;;;;5014569;28;20470;-83
2022/09/12 11:30:23;;;;;;;3.17;1.40;;;11.70;95.60;;;;;;5071690;28;20378;-87
2022/09/12 11:32:51;;;;;;;4.50;1.50;;;11.60;96.40;;;;;;5071439;28;20389;-80
2022/09/12 11:35:24;;;;;;;4.95;1.35;;;11.50;97.00;;;;;;5070854;28;20389;-86
2022/09/12 11:38:10;;;;;;;7.72;1.63;;;11.50;97.50;;;;;;5070815;28;20723;-77
2022/09/12 11:40:45;;;;;;;8.95;1.90;;;10.30;97.70;;;;;;5070343;28;20370;-79
2022/09/12 11:43:33;;;;;;;7.17;1.93;;;11.40;98.40;;;;;;5070507;28;20900;-79
2022/09/12 11:46:39;;;;;;;10.63;2.40;;;11.40;98.30;;;;;;5070120;28;20778;-78
2022/09/12 11:49:17;;;;;;;30.42;3.53;;;11.40;98.30;;;;;;5050200;28;20494;-84
2022/09/12 11:51:53;;;;;;;17.30;1.90;;;11.40;98.10;;;;;;5049984;28;20510;-81
2022/09/12 11:54:29;;;;;;;13.57;1.50;;;11.40;98.20;;;;;;5050031;28;20364;-79
2022/09/12 11:57:30;;;;;;;8.85;1.20;;;11.40;98.30;;;;;;5050316;28;20490;-79
2022/09/12 12:00:25;;;;;;;10.90;1.40;;;11.30;98.50;;;;;;5049875;28;20379;-79
2022/09/12 12:03:32;;;;;;;17.27;1.80;;;11.30;98.70;;;;;;5049953;28;20455;-78
2022/09/12 12:06:20;;;;;;;20.53;2.37;;;11.30;98.70;;;;;;4971346;28;20466;-77
2022/09/12 12:08:49;;;;;;;27.45;2.50;;;11.20;99.10;;;;;;4971283;28;20418;-81
2022/09/12 12:11:29;;;;;;;15.02;2.00;;;11.30;99.30;;;;;;4972242;28;20383;-77
2022/09/12 12:14:01;;;;;;;17.63;3.05;;;11.30;99.50;;;;;;4975495;28;20853;-76
2022/09/12 12:16:39;;;;;;;21.63;2.80;;;11.20;99.80;;;;;;4975017;28;20902;-80
2022/09/12 12:19:19;;;;;;;11.60;2.47;;;11.20;99.90;;;;;;4974957;28;20385;-80
2022/09/12 12:21:52;;;;;;;9.10;2.70;;;11.20;99.90;;;;;;4975616;28;20382;-76
2022/09/12 12:24:24;;;;;;;9.68;2.20;;;11.20;99.90;;;;;;4974740;28;20465;-76
2022/09/12 12:26:56;;;;;;;5.80;2.08;;;11.10;99.90;;;;;;4996090;28;20462;-76
2022/09/12 12:29:26;;;;;;;3.58;1.60;;;11.10;99.90;;;;;;5013771;28;20830;-81
2022/09/12 12:32:02;;;;;;;6.30;1.60;;;11.10;99.90;;;;;;5013717;28;20395;-82
2022/09/12 12:34:40;;;;;;;7.45;1.60;;;11.10;99.90;;;;;;5013954;28;20390;-83
2022/09/12 12:37:24;;;;;;;5.40;1.40;;;11.10;99.90;;;;;;5013697;28;20427;-77
2022/09/12 12:39:59;;;;;;;6.22;1.35;;;11.00;99.90;;;;;;5014237;28;20372;-76
2022/09/12 12:42:33;;;;;;;6.82;1.55;;;10.90;99.90;;;;;;5076581;28;20419;-75
2022/09/12 12:45:03;;;;;;;4.32;1.15;;;10.90;99.90;;;;;;5115740;28;20388;-75
2022/09/12 12:47:56;;;;;;;4.70;1.30;;;10.80;99.90;;;;;;5115715;28;20379;-79
2022/09/12 12:50:26;;;;;;;6.53;1.58;;;10.80;99.90;;;;;;5115838;28;20359;-76
2022/09/12 12:52:58;;;;;;;6.97;1.27;;;10.70;99.90;;;;;;5115426;28;20731;-76
2022/09/12 12:55:43;;;;;;;5.68;1.50;;;10.70;99.90;;;;;;5115536;28;20363;-77
2022/09/12 12:58:28;;;;;;;6.20;1.50;;;10.60;99.90;;;;;;5117460;28;20363;-77
2022/09/12 13:01:15;;;;;;;5.25;1.60;;;10.50;99.90;;;;;;5118078;28;20354;-84
2022/09/12 13:03:54;;;;;;;5.90;2.03;;;10.40;99.90;;;;;;5121225;28;20442;-79
2022/09/12 13:06:43;;;;;;;6.47;1.90;;;10.30;99.90;;;;;;5102617;28;20375;-83
2022/09/12 13:09:39;;;;;;;5.47;2.00;;;10.30;99.90;;;;;;5096268;28;20396;-84
2022/09/12 13:12:31;;;;;;;5.03;1.88;;;10.20;99.90;;;;;;5074937;28;20378;-76
2022/09/12 13:15:00;;;;;;;4.80;2.00;;;10.10;99.90;;;;;;5014541;28;20395;-76
2022/09/12 13:17:33;;;;;;;5.03;2.83;;;10.00;99.90;;;;;;5013587;28;20413;-76
2022/09/12 13:20:21;;;;;;;5.45;3.08;;;10.00;99.90;;;;;;5013181;28;20379;-77
2022/09/12 13:22:50;;;;;;;7.28;3.20;;;10.00;99.90;;;;;;4995867;28;20434;-78
2022/09/12 13:25:28;;;;;;;4.38;3.00;;;10.00;99.90;;;;;;5013561;28;20415;-81
2022/09/12 13:27:58;;;;;;;4.13;2.55;;;9.90;99.90;;;;;;5013352;28;20454;-82
2022/09/12 13:30:27;;;;;;;5.28;2.20;;;9.90;99.90;;;;;;5012777;28;20429;-83